Time;durP1;ratioP1;P1;durP2;ratioP2;P2;SDS_P1;SDS_P2;PMS_P1;PMS_P2;Temp;Humidity;BMP_temperature;BMP_pressure;BME280_temperature;BME280_humidity;BME280_pressure;Samples;Min_cycle;Max_cycle;Signal;HPM_P1;HPM_P2
2024/04/09 00:01:59;;;;;;;26.65;5.43;;;;;;;18.91;46.31;99658.94;5319523;26;20001;-84
2024/04/09 00:04:28;;;;;;;23.35;5.90;;;;;;;18.87;47.26;99663.09;5329736;26;20036;-82
2024/04/09 00:06:56;;;;;;;20.52;5.50;;;;;;;18.85;46.94;99667.03;5320453;26;20021;-84
2024/04/09 00:09:21;;;;;;;26.50;5.88;;;;;;;18.94;46.24;99674.63;5320937;26;20029;-84
2024/04/09 00:11:53;;;;;;;26.20;5.65;;;;;;;19.01;46.69;99690.69;5319758;26;20012;-82
2024/04/09 00:14:19;;;;;;;21.85;5.45;;;;;;;19.25;43.68;99717.84;5320202;26;20428;-83
2024/04/09 00:16:47;;;;;;;22.13;5.60;;;;;;;19.49;43.14;99730.50;5319694;26;20016;-84
2024/04/09 00:19:17;;;;;;;18.95;5.30;;;;;;;19.64;43.04;99733.78;5318856;26;20010;-85
2024/04/09 00:21:49;;;;;;;21.08;5.03;;;;;;;19.65;43.24;99729.22;5321702;26;20030;-86
2024/04/09 00:24:16;;;;;;;28.53;5.17;;;;;;;19.54;45.02;99738.72;5353142;26;20014;-84
2024/04/09 00:26:45;;;;;;;29.55;6.10;;;;;;;19.34;47.23;99738.03;5330546;26;20240;-85
2024/04/09 00:29:10;;;;;;;20.45;5.28;;;;;;;19.18;49.58;99733.94;5330145;26;20001;-84
2024/04/09 00:31:39;;;;;;;24.85;6.43;;;;;;;19.01;50.72;99717.50;5320214;26;20016;-82
2024/04/09 00:34:04;;;;;;;23.98;5.78;;;;;;;18.78;52.32;99722.50;5317756;26;20005;-81
2024/04/09 00:36:33;;;;;;;33.10;6.53;;;;;;;18.59;53.91;99722.31;5316392;26;20016;-82
2024/04/09 00:39:01;;;;;;;18.63;6.15;;;;;;;18.47;55.39;99737.38;5335780;26;20034;-81
2024/04/09 00:41:30;;;;;;;17.55;5.47;;;;;;;18.35;56.49;99757.78;5320499;26;20014;-84
2024/04/09 00:43:56;;;;;;;21.85;6.72;;;;;;;18.18;57.42;99766.22;5320029;26;20002;-84
2024/04/09 00:46:26;;;;;;;22.20;6.03;;;;;;;18.09;57.98;99770.13;5321470;26;20016;-84
2024/04/09 00:48:53;;;;;;;21.63;6.28;;;;;;;18.02;58.24;99771.97;5321479;26;20008;-85
2024/04/09 00:51:21;;;;;;;22.27;5.93;;;;;;;17.98;58.81;99773.41;5323076;26;20030;-85
2024/04/09 00:53:48;;;;;;;21.20;5.90;;;;;;;17.75;59.34;99770.28;5327419;26;20005;-85
2024/04/09 00:56:20;;;;;;;13.85;5.78;;;;;;;17.64;60.33;99780.50;5320932;26;20005;-84
2024/04/09 00:58:46;;;;;;;20.85;5.95;;;;;;;17.52;60.25;99774.06;5320988;26;20006;-83
2024/04/09 01:01:16;;;;;;;26.30;6.10;;;;;;;17.39;61.05;99782.06;5320809;26;20046;-83
2024/04/09 01:03:43;;;;;;;20.45;5.85;;;;;;;17.35;60.87;99786.16;5321206;26;20452;-83
2024/04/09 01:06:11;;;;;;;21.50;5.78;;;;;;;17.29;61.54;99787.78;5320143;26;20442;-84
2024/04/09 01:08:37;;;;;;;17.23;5.80;;;;;;;17.26;62.49;99804.19;5320733;26;20005;-84
2024/04/09 01:11:07;;;;;;;17.45;6.10;;;;;;;17.18;62.37;99799.84;5320725;26;20064;-84
2024/04/09 01:13:38;;;;;;;13.30;4.90;;;;;;;17.12;63.57;99797.13;5320922;26;20016;-85
2024/04/09 01:16:08;;;;;;;19.38;5.40;;;;;;;17.02;63.74;99800.16;5319608;26;20060;-86
2024/04/09 01:18:33;;;;;;;19.83;5.20;;;;;;;16.95;63.99;99811.84;5325547;26;20621;-85
2024/04/09 01:21:03;;;;;;;20.85;5.22;;;;;;;16.90;64.69;99812.41;5327091;26;20086;-83
2024/04/09 01:23:31;;;;;;;24.27;5.43;;;;;;;16.80;65.39;99815.44;5322624;26;20002;-83
2024/04/09 01:26:00;;;;;;;17.90;5.40;;;;;;;16.77;65.81;99806.97;5317391;26;20472;-82
2024/04/09 01:28:25;;;;;;;13.82;4.90;;;;;;;16.73;65.78;99795.84;5335654;26;20001;-85
2024/04/09 01:30:55;;;;;;;23.35;5.20;;;;;;;16.69;66.06;99808.75;5319453;26;20016;-85
2024/04/09 01:33:21;;;;;;;19.52;5.22;;;;;;;16.72;66.10;99806.72;5321159;26;20456;-84
2024/04/09 01:35:50;;;;;;;19.23;5.90;;;;;;;16.66;66.84;99825.19;5321843;26;20017;-81
2024/04/09 01:38:17;;;;;;;19.40;5.82;;;;;;;16.58;67.15;99824.50;5319718;26;20002;-82
2024/04/09 01:40:48;;;;;;;23.20;6.53;;;;;;;16.50;68.30;99825.44;5319801;26;19998;-84
2024/04/09 01:43:13;;;;;;;18.80;5.80;;;;;;;16.40;68.14;99820.44;5320107;26;20002;-84
2024/04/09 01:45:42;;;;;;;20.85;6.05;;;;;;;16.35;68.75;99833.53;5319897;26;20016;-84
2024/04/09 01:48:07;;;;;;;15.45;5.55;;;;;;;16.20;69.71;99834.59;5319654;26;20002;-80
2024/04/09 01:50:38;;;;;;;18.65;6.78;;;;;;;16.17;70.05;99833.97;5320921;26;20013;-83
2024/04/09 01:53:05;;;;;;;19.70;5.53;;;;;;;16.17;70.34;99825.16;5320497;26;20005;-84
2024/04/09 01:55:33;;;;;;;18.08;6.13;;;;;;;16.11;70.59;99828.56;5321345;26;20493;-84
2024/04/09 01:58:04;;;;;;;22.23;6.78;;;;;;;16.06;70.81;99837.13;5319601;26;20013;-84
2024/04/09 02:00:32;;;;;;;20.38;6.30;;;;;;;16.04;70.96;99835.69;5319982;26;20005;-83
2024/04/09 02:02:58;;;;;;;16.98;5.80;;;;;;;16.03;70.82;99831.34;5319333;26;20002;-80
2024/04/09 02:05:26;;;;;;;22.48;5.95;;;;;;;15.99;71.30;99830.91;5319606;26;20032;-83
2024/04/09 02:07:52;;;;;;;19.27;5.57;;;;;;;16.01;70.85;99830.72;5319622;26;20001;-84
2024/04/09 02:10:21;;;;;;;16.17;5.90;;;;;;;15.98;71.21;99815.91;5320174;26;20005;-82
2024/04/09 02:12:47;;;;;;;16.55;5.72;;;;;;;15.98;71.25;99829.25;5320221;26;20006;-84
2024/04/09 02:15:18;;;;;;;14.25;4.88;;;;;;;15.94;71.15;99846.66;5319090;26;20464;-82
2024/04/09 02:17:44;;;;;;;27.23;5.50;;;;;;;15.92;71.92;99849.50;5322848;26;20478;-85
2024/04/09 02:20:13;;;;;;;14.73;4.82;;;;;;;15.93;71.20;99845.81;5324266;26;20024;-83
2024/04/09 02:22:38;;;;;;;13.98;5.05;;;;;;;15.89;71.66;99865.91;5321695;26;20008;-84
2024/04/09 02:25:07;;;;;;;14.00;4.75;;;;;;;15.92;71.65;99870.03;5324502;26;20009;-85
2024/04/09 02:27:33;;;;;;;13.80;4.85;;;;;;;15.93;71.75;99879.69;5330044;26;20004;-83
2024/04/09 02:30:03;;;;;;;14.32;5.00;;;;;;;15.98;71.67;99885.28;5330297;26;20041;-84
2024/04/09 02:32:31;;;;;;;18.48;6.22;;;;;;;16.06;71.29;99887.03;5330415;26;20096;-83
2024/04/09 02:35:01;;;;;;;18.35;4.85;;;;;;;15.99;71.26;99878.13;5320845;26;19994;-85
2024/04/09 02:37:28;;;;;;;21.90;5.25;;;;;;;15.89;71.87;99876.59;5319721;26;20008;-82
2024/04/09 02:39:56;;;;;;;15.70;4.97;;;;;;;15.87;71.68;99875.94;5334548;26;20009;-84
2024/04/09 02:42:23;;;;;;;15.32;5.03;;;;;;;15.81;72.73;99874.03;5337268;26;20017;-82
2024/04/09 02:44:52;;;;;;;18.70;6.22;;;;;;;15.76;72.45;99883.56;5319960;26;20016;-83
2024/04/09 02:47:18;;;;;;;13.45;5.38;;;;;;;15.75;72.37;99892.59;5316606;26;20082;-79
2024/04/09 02:49:52;;;;;;;8.82;4.75;;;;;;;15.66;72.34;99898.03;5318962;26;20030;-81
2024/04/09 02:52:18;;;;;;;18.33;5.20;;;;;;;15.62;72.39;99896.72;5322342;26;19998;-83
2024/04/09 02:54:48;;;;;;;12.50;4.30;;;;;;;15.61;72.28;99900.41;5316685;26;20106;-82
2024/04/09 02:57:14;;;;;;;11.68;4.53;;;;;;;15.57;72.20;99904.44;5325730;26;20099;-79
2024/04/09 02:59:43;;;;;;;15.88;4.65;;;;;;;15.49;73.54;99911.69;5316409;26;19997;-82
2024/04/09 03:02:09;;;;;;;20.05;5.30;;;;;;;15.55;73.24;99937.66;5320937;26;20009;-83
2024/04/09 03:04:38;;;;;;;21.45;5.68;;;;;;;15.48;73.21;99948.22;5315388;26;20113;-82
2024/04/09 03:07:06;;;;;;;16.45;4.82;;;;;;;15.52;73.65;99962.84;5323075;26;19997;-80
2024/04/09 03:09:34;;;;;;;19.50;4.78;;;;;;;15.61;73.28;99966.25;5316093;26;20017;-82
2024/04/09 03:12:00;;;;;;;15.18;4.65;;;;;;;15.65;73.12;99971.06;5314873;26;20017;-82
2024/04/09 03:14:28;;;;;;;12.55;4.60;;;;;;;15.63;73.73;99962.41;5315428;26;20030;-83
2024/04/09 03:16:54;;;;;;;15.13;5.07;;;;;;;15.64;73.52;99969.44;5315234;26;20460;-81
2024/04/09 03:19:22;;;;;;;11.88;5.07;;;;;;;15.61;73.51;99979.59;5315049;26;20012;-82
2024/04/09 03:21:48;;;;;;;13.55;5.18;;;;;;;15.59;74.02;100003.78;5314014;26;20002;-80
2024/04/09 03:24:19;;;;;;;14.52;4.75;;;;;;;15.59;74.12;100009.13;5314773;26;20019;-82
2024/04/09 03:26:45;;;;;;;14.27;5.65;;;;;;;15.71;73.28;99993.50;5314312;26;20018;-80
2024/04/09 03:29:13;;;;;;;19.05;4.97;;;;;;;15.65;72.06;99989.75;5315476;26;20006;-80
2024/04/09 03:31:39;;;;;;;11.65;4.80;;;;;;;15.61;72.28;100000.94;5314574;26;20016;-82
2024/04/09 03:34:07;;;;;;;14.30;4.63;;;;;;;15.53;72.80;99988.50;5320939;26;20001;-82
2024/04/09 03:36:32;;;;;;;16.70;4.65;;;;;;;15.57;72.38;99997.78;5312946;26;20001;-82
2024/04/09 03:39:04;;;;;;;12.32;4.50;;;;;;;15.56;73.63;100004.16;5313935;26;20486;-82
2024/04/09 03:41:35;;;;;;;16.45;4.93;;;;;;;15.58;72.32;99993.28;5313661;26;20025;-81
2024/04/09 03:44:02;;;;;;;10.65;3.85;;;;;;;15.57;73.18;99983.63;5313968;26;20005;-81
2024/04/09 03:46:31;;;;;;;15.05;4.80;;;;;;;15.52;74.82;99976.19;5330047;26;20012;-80
2024/04/09 03:48:59;;;;;;;15.68;4.78;;;;;;;15.46;74.12;99958.25;5314150;26;20001;-84
2024/04/09 03:51:25;;;;;;;17.80;4.47;;;;;;;15.56;73.13;99942.81;5314970;26;19998;-81
2024/04/09 03:53:53;;;;;;;13.75;4.45;;;;;;;15.65;72.75;99931.06;5337586;26;20016;-83
2024/04/09 03:56:19;;;;;;;11.90;4.35;;;;;;;15.75;71.79;99937.94;5315682;26;20021;-82
2024/04/09 03:58:51;;;;;;;8.52;3.90;;;;;;;15.69;72.71;99957.38;5326067;26;20001;-80
2024/04/09 04:01:17;;;;;;;11.82;4.20;;;;;;;15.63;72.96;99967.75;5317846;26;20002;-82
2024/04/09 04:03:48;;;;;;;13.18;4.68;;;;;;;15.60;73.80;99957.44;5318168;26;20468;-81
2024/04/09 04:06:14;;;;;;;10.00;3.90;;;;;;;15.44;75.09;99952.25;5318799;26;19997;-80
2024/04/09 04:08:44;;;;;;;10.90;4.20;;;;;;;15.35;75.96;99942.69;5319642;26;19998;-81
2024/04/09 04:11:11;;;;;;;14.48;4.45;;;;;;;15.25;75.86;99942.13;5318260;26;20017;-81
2024/04/09 04:13:40;;;;;;;10.38;3.60;;;;;;;15.16;76.50;99934.19;5319316;26;20509;-81
2024/04/09 04:16:10;;;;;;;12.40;4.15;;;;;;;15.07;77.42;99919.28;5318571;26;20016;-82
2024/04/09 04:18:40;;;;;;;12.43;3.75;;;;;;;15.12;77.75;99908.91;5317010;26;20013;-82
2024/04/09 04:21:07;;;;;;;12.25;4.10;;;;;;;15.01;77.21;99933.34;5319430;26;20075;-82
2024/04/09 04:23:36;;;;;;;9.35;3.58;;;;;;;14.99;78.04;99930.03;5317654;26;20016;-80
2024/04/09 04:26:03;;;;;;;6.32;3.13;;;;;;;14.96;78.56;99942.91;5319871;26;20075;-79
2024/04/09 04:28:32;;;;;;;8.32;3.40;;;;;;;14.91;78.72;99978.03;5333231;26;20020;-79
2024/04/09 04:30:58;;;;;;;7.43;2.80;;;;;;;14.94;79.15;100009.66;5332940;26;20002;-79
2024/04/09 04:33:29;;;;;;;4.80;2.88;;;;;;;14.98;78.98;100029.63;5325753;26;20025;-78
2024/04/09 04:35:55;;;;;;;6.75;2.80;;;;;;;14.97;78.94;100041.31;5324652;26;20075;-82
2024/04/09 04:38:24;;;;;;;6.13;3.00;;;;;;;15.03;79.35;100051.25;5321005;26;20002;-80
2024/04/09 04:40:50;;;;;;;7.15;3.10;;;;;;;15.05;79.25;100057.25;5319953;26;20010;-82
2024/04/09 04:43:18;;;;;;;6.45;2.65;;;;;;;15.06;78.44;100063.41;5319894;26;20012;-80
2024/04/09 04:45:45;;;;;;;5.32;2.80;;;;;;;15.04;78.53;100050.22;5318988;26;20336;-82
2024/04/09 04:48:14;;;;;;;4.25;2.30;;;;;;;15.06;77.40;100045.56;5319469;26;20024;-81
2024/04/09 04:50:43;;;;;;;4.03;2.00;;;;;;;14.99;78.51;100054.44;5319863;26;20004;-83
2024/04/09 04:53:11;;;;;;;3.42;2.17;;;;;;;14.97;78.80;100065.28;5321004;26;20017;-84
2024/04/09 04:55:37;;;;;;;7.97;2.53;;;;;;;14.89;79.40;100076.00;5321602;26;20017;-83
2024/04/09 04:58:06;;;;;;;7.45;2.80;;;;;;;14.89;80.02;100073.31;5320443;26;20010;-83
2024/04/09 05:00:32;;;;;;;4.97;2.90;;;;;;;14.89;80.20;100076.00;5320148;26;19998;-82
2024/04/09 05:03:01;;;;;;;6.47;2.85;;;;;;;14.91;79.83;100065.97;5321741;26;20021;-81
2024/04/09 05:05:28;;;;;;;4.45;2.42;;;;;;;14.96;79.14;100065.47;5332365;26;20001;-85
2024/04/09 05:07:59;;;;;;;4.30;2.33;;;;;;;14.90;79.51;100073.13;5329103;26;20057;-80
2024/04/09 05:10:25;;;;;;;6.43;3.47;;;;;;;14.87;79.82;100084.16;5323194;26;20340;-84
2024/04/09 05:12:55;;;;;;;4.28;2.35;;;;;;;14.94;79.48;100081.63;5329260;26;20011;-82
2024/04/09 05:15:22;;;;;;;5.75;2.42;;;;;;;14.91;79.94;100084.63;5344169;26;20012;-84
2024/04/09 05:17:51;;;;;;;5.63;2.60;;;;;;;14.91;79.67;100089.94;5344086;26;20007;-84
2024/04/09 05:20:18;;;;;;;9.23;3.40;;;;;;;14.90;79.82;100061.66;5333703;26;19998;-85
2024/04/09 05:22:47;;;;;;;5.10;2.80;;;;;;;14.85;80.50;100061.34;5322379;26;19998;-83
2024/04/09 05:25:17;;;;;;;6.63;2.70;;;;;;;14.79;80.50;100070.06;5321878;26;20016;-85
2024/04/09 05:27:46;;;;;;;6.55;2.95;;;;;;;14.78;80.69;100092.38;5343297;26;20084;-82
2024/04/09 05:30:12;;;;;;;7.30;2.60;;;;;;;14.73;81.96;100100.88;5332104;26;20009;-83
2024/04/09 05:32:42;;;;;;;6.05;2.72;;;;;;;14.77;81.95;100109.34;5332946;26;20121;-80
2024/04/09 05:35:08;;;;;;;7.15;3.20;;;;;;;14.77;81.73;100104.03;5325971;26;20002;-82
2024/04/09 05:37:37;;;;;;;5.30;2.80;;;;;;;14.82;82.28;100104.31;5318813;26;19998;-83
2024/04/09 05:40:08;;;;;;;7.25;2.80;;;;;;;14.71;82.24;100110.06;5317729;26;20006;-82
2024/04/09 05:42:40;;;;;;;6.45;2.97;;;;;;;14.74;82.10;100102.56;5318853;26;20038;-82
2024/04/09 05:45:08;;;;;;;4.95;2.80;;;;;;;14.62;82.67;100096.78;5318621;26;20013;-84
2024/04/09 05:47:37;;;;;;;4.20;2.60;;;;;;;14.58;82.54;100102.63;5319889;26;20005;-83
2024/04/09 05:50:03;;;;;;;7.30;3.05;;;;;;;14.52;82.86;100111.31;5319517;26;20012;-83
2024/04/09 05:52:32;;;;;;;5.13;2.50;;;;;;;14.51;82.96;100115.81;5325199;26;20013;-85
2024/04/09 05:54:58;;;;;;;3.85;2.28;;;;;;;14.45;82.76;100120.94;5345239;26;20001;-86
2024/04/09 05:57:27;;;;;;;4.80;2.45;;;;;;;14.36;83.12;100133.44;5321614;26;20021;-84
2024/04/09 05:59:55;;;;;;;9.73;2.88;;;;;;;14.36;83.77;100136.94;5320107;26;20531;-83
2024/04/09 06:02:24;;;;;;;8.23;2.88;;;;;;;14.17;84.86;100145.31;5329677;26;20061;-84
2024/04/09 06:04:51;;;;;;;4.63;2.22;;;;;;;14.04;84.55;100148.47;5320930;26;20013;-84
2024/04/09 06:07:20;;;;;;;4.03;2.33;;;;;;;13.87;84.34;100150.31;5320262;26;20470;-84
2024/04/09 06:09:46;;;;;;;2.95;2.03;;;;;;;13.47;84.12;100155.63;5319599;26;20009;-80
2024/04/09 06:12:15;;;;;;;3.60;1.85;;;;;;;13.37;84.98;100146.00;5320008;26;20545;-84
2024/04/09 06:14:41;;;;;;;4.65;2.25;;;;;;;13.27;85.82;100136.53;5318334;26;20043;-81
2024/04/09 06:17:12;;;;;;;4.60;2.40;;;;;;;13.21;84.68;100131.81;5318875;26;20002;-82
2024/04/09 06:19:37;;;;;;;2.50;1.92;;;;;;;13.23;84.13;100124.56;5322047;26;20347;-84
2024/04/09 06:22:06;;;;;;;2.33;2.03;;;;;;;13.21;84.31;100140.59;5320071;26;20008;-83
2024/04/09 06:24:31;;;;;;;2.92;2.10;;;;;;;13.27;85.49;100158.59;5317655;26;20016;-83
2024/04/09 06:27:00;;;;;;;3.53;1.70;;;;;;;13.19;84.09;100174.50;5319187;26;20002;-82
2024/04/09 06:29:26;;;;;;;2.38;2.17;;;;;;;13.23;84.89;100186.50;5320516;26;20002;-83
2024/04/09 06:31:55;;;;;;;2.30;1.70;;;;;;;13.18;84.60;100195.94;5320696;27;19998;-84
2024/04/09 06:34:23;;;;;;;2.78;1.92;;;;;;;13.23;84.32;100204.28;5320355;26;20009;-83
2024/04/09 06:36:51;;;;;;;4.25;1.85;;;;;;;13.30;84.34;100202.59;5321491;26;20012;-84
2024/04/09 06:39:17;;;;;;;3.58;2.22;;;;;;;13.26;83.97;100195.94;5321485;26;20025;-82
2024/04/09 06:41:45;;;;;;;2.75;1.85;;;;;;;13.33;83.63;100195.16;5320383;26;20074;-81
2024/04/09 06:44:11;;;;;;;4.45;2.40;;;;;;;13.30;82.36;100184.84;5324305;26;20008;-82
2024/04/09 06:46:39;;;;;;;3.05;2.58;;;;;;;13.33;81.79;100194.31;5325302;26;20372;-80
2024/04/09 06:49:05;;;;;;;4.47;3.10;;;;;;;13.29;81.66;100214.25;5323315;26;20012;-84
2024/04/09 06:51:35;;;;;;;3.63;3.05;;;;;;;13.26;81.38;100226.03;5329257;26;20013;-82
2024/04/09 06:54:02;;;;;;;5.30;3.17;;;;;;;13.26;82.03;100228.69;5327348;26;20001;-82
2024/04/09 06:56:31;;;;;;;4.43;3.30;;;;;;;13.18;82.83;100225.16;5327071;26;20002;-83
2024/04/09 06:58:56;;;;;;;4.03;2.38;;;;;;;13.14;80.69;100221.97;5318878;26;20002;-85
2024/04/09 07:01:25;;;;;;;3.53;2.22;;;;;;;13.11;79.40;100233.75;5319292;26;20005;-82
2024/04/09 07:03:51;;;;;;;3.20;1.88;;;;;;;13.00;79.79;100246.50;5319317;26;20009;-85
2024/04/09 07:06:20;;;;;;;4.15;2.10;;;;;;;13.03;78.36;100264.75;5317233;26;20038;-80
2024/04/09 07:08:49;;;;;;;3.00;1.90;;;;;;;13.02;76.10;100274.56;5320904;26;20005;-81
2024/04/09 07:11:20;;;;;;;2.50;1.88;;;;;;;13.04;76.19;100300.97;5322413;26;20002;-83
2024/04/09 07:13:45;;;;;;;3.45;2.20;;;;;;;12.93;73.60;100295.91;5317178;26;20009;-83
2024/04/09 07:16:14;;;;;;;5.05;1.98;;;;;;;12.77;72.03;100289.53;5316987;26;20020;-80
2024/04/09 07:18:40;;;;;;;5.00;3.75;;;;;;;12.67;71.28;100290.63;5314846;26;20394;-80
2024/04/09 07:21:08;;;;;;;7.75;3.08;;;;;;;12.53;70.23;100287.53;5318432;26;20057;-82
2024/04/09 07:23:34;;;;;;;5.32;2.20;;;;;;;12.40;72.55;100297.72;5326356;26;20026;-83
2024/04/09 07:26:05;;;;;;;8.82;4.18;;;;;;;12.38;72.33;100316.47;5321519;26;20061;-82
2024/04/09 07:28:31;;;;;;;9.00;2.33;;;;;;;12.46;72.88;100317.53;5316903;26;19998;-78
2024/04/09 07:31:05;;;;;;;7.50;2.90;;;;;;;12.42;73.46;100337.41;5326248;26;20013;-82
2024/04/09 07:33:31;;;;;;;6.05;2.25;;;;;;;12.38;73.01;100339.53;5313585;26;20024;-82
2024/04/09 07:36:03;;;;;;;7.07;2.42;;;;;;;12.48;73.12;100344.75;5324307;26;20418;-81
2024/04/09 07:38:28;;;;;;;5.80;2.38;;;;;;;12.50;73.84;100335.66;5319847;26;20475;-79
2024/04/09 07:40:57;;;;;;;3.58;2.10;;;;;;;12.63;74.46;100346.69;5316108;26;20002;-81
2024/04/09 07:43:25;;;;;;;3.30;2.10;;;;;;;12.72;72.31;100344.06;5316334;26;20013;-82
2024/04/09 07:45:54;;;;;;;4.95;2.17;;;;;;;12.70;74.19;100340.75;5315434;26;20050;-82
2024/04/09 07:48:20;;;;;;;4.90;2.10;;;;;;;12.79;72.01;100342.47;5316545;26;20001;-81
2024/04/09 07:50:48;;;;;;;5.03;1.88;;;;;;;12.76;71.52;100334.81;5318006;26;20083;-82
2024/04/09 07:53:16;;;;;;;5.05;2.10;;;;;;;12.92;71.49;100329.63;5322059;26;20016;-81
2024/04/09 07:55:44;;;;;;;5.60;2.47;;;;;;;13.05;71.22;100334.50;5315798;26;20013;-82
2024/04/09 07:58:10;;;;;;;6.15;2.03;;;;;;;13.02;69.05;100340.97;5315537;26;20002;-81
2024/04/09 08:00:42;;;;;;;7.55;2.20;;;;;;;13.21;69.05;100339.91;5313636;26;20006;-81
2024/04/09 08:03:08;;;;;;;3.42;1.95;;;;;;;13.31;68.86;100343.31;5316347;26;20002;-80
2024/04/09 08:05:36;;;;;;;5.65;2.05;;;;;;;13.37;67.26;100347.16;5315653;26;19997;-80
2024/04/09 08:08:02;;;;;;;6.40;2.17;;;;;;;13.41;66.94;100351.19;5323706;26;20004;-83
2024/04/09 08:10:31;;;;;;;4.90;2.20;;;;;;;13.15;68.39;100344.03;5317917;26;20005;-80
2024/04/09 08:12:57;;;;;;;5.22;2.10;;;;;;;13.06;65.63;100352.94;5320078;26;20080;-82
2024/04/09 08:15:26;;;;;;;3.67;1.67;;;;;;;12.92;66.17;100369.47;5317711;26;20018;-81
2024/04/09 08:17:54;;;;;;;7.25;2.70;;;;;;;12.98;66.27;100376.81;5317594;26;20001;-82
2024/04/09 08:20:22;;;;;;;3.97;2.67;;;;;;;13.06;63.02;100376.84;5316879;26;20006;-82
2024/04/09 08:22:49;;;;;;;6.32;2.13;;;;;;;13.10;63.25;100364.94;5319115;26;20029;-82
2024/04/09 08:25:18;;;;;;;5.55;2.40;;;;;;;13.12;62.51;100357.63;5334834;26;20016;-82
2024/04/09 08:27:45;;;;;;;7.22;3.88;;;;;;;13.19;60.80;100354.34;5318993;26;20083;-79
2024/04/09 08:30:17;;;;;;;6.38;2.95;;;;;;;13.10;61.83;100364.94;5333380;26;20084;-83
2024/04/09 08:32:44;;;;;;;7.30;2.05;;;;;;;13.34;60.74;100382.03;5326237;26;19998;-82
2024/04/09 08:35:16;;;;;;;3.58;2.22;;;;;;;13.35;60.54;100407.63;5324234;26;20038;-82
2024/04/09 08:37:42;;;;;;;4.55;1.92;;;;;;;13.35;59.94;100419.09;5305438;27;20442;-81
2024/04/09 08:40:13;;;;;;;5.18;2.17;;;;;;;13.42;60.16;100434.41;5324524;26;20480;-83
2024/04/09 08:42:38;;;;;;;6.50;2.40;;;;;;;13.22;60.06;100444.41;5319351;26;20317;-80
2024/04/09 08:45:14;;;;;;;4.85;1.63;;;;;;;12.98;61.24;100445.03;5318861;26;20006;-82
2024/04/09 08:47:41;;;;;;;7.93;2.22;;;;;;;12.94;61.96;100443.66;5318394;26;20016;-82
2024/04/09 08:50:10;;;;;;;3.97;1.50;;;;;;;13.05;62.10;100443.44;5328382;26;20005;-81
2024/04/09 08:52:38;;;;;;;5.07;1.70;;;;;;;13.05;60.54;100462.03;5324107;26;20074;-81
2024/04/09 08:55:09;;;;;;;5.65;1.85;;;;;;;13.17;60.23;100460.81;5325919;26;20020;-81
2024/04/09 08:57:35;;;;;;;8.60;2.33;;;;;;;13.27;60.49;100472.19;5324522;26;20017;-79
2024/04/09 09:00:04;;;;;;;3.50;1.90;;;;;;;13.27;59.68;100466.06;5318928;26;20005;-81
2024/04/09 09:02:30;;;;;;;4.13;1.73;;;;;;;13.27;60.02;100463.41;5319242;26;20002;-84
2024/04/09 09:04:58;;;;;;;4.65;1.65;;;;;;;13.35;59.20;100466.94;5318470;26;20085;-85
2024/04/09 09:07:24;;;;;;;4.72;2.08;;;;;;;13.35;59.95;100482.91;5323369;26;20013;-82
2024/04/09 09:10:02;;;;;;;7.38;1.92;;;;;;;13.22;60.12;100484.25;5324305;26;20001;-83
2024/04/09 09:12:28;;;;;;;4.38;1.80;;;;;;;13.19;59.44;100490.72;5322897;26;20016;-83
2024/04/09 09:15:00;;;;;;;5.40;1.60;;;;;;;13.13;59.38;100484.19;5325050;26;20016;-83
2024/04/09 09:17:26;;;;;;;6.55;2.47;;;;;;;13.19;58.12;100479.25;5319896;26;20002;-83
2024/04/09 09:20:08;;;;;;;4.18;1.85;;;;;;;13.07;60.65;100503.38;5320347;26;20002;-85
2024/04/09 09:22:42;;;;;;;4.28;1.98;;;;;;;13.05;60.44;100526.63;5319230;26;20006;-83
2024/04/09 09:25:17;;;;;;;4.68;1.77;;;;;;;12.80;60.03;100511.44;5323460;26;20020;-84
2024/04/09 09:27:44;;;;;;;2.60;1.30;;;;;;;12.67;60.39;100508.31;5323313;26;19997;-82
2024/04/09 09:30:13;;;;;;;6.40;2.20;;;;;;;12.65;59.17;100505.84;5322254;26;20072;-84
2024/04/09 09:32:45;;;;;;;6.68;2.35;;;;;;;12.83;59.91;100501.38;5308642;26;19998;-80
2024/04/09 09:35:18;;;;;;;6.55;1.85;;;;;;;13.09;59.21;100490.81;5320118;26;20009;-80
2024/04/09 09:37:47;;;;;;;4.07;2.08;;;;;;;13.34;58.76;100494.50;5319013;26;20472;-82
2024/04/09 09:40:18;;;;;;;4.18;1.75;;;;;;;13.60;57.82;100491.84;5319025;26;20002;-81
2024/04/09 09:42:45;;;;;;;4.88;1.98;;;;;;;13.97;56.25;100493.34;5317109;26;20436;-80
2024/04/09 09:45:13;;;;;;;3.53;2.05;;;;;;;14.53;55.76;100483.94;5322861;26;20530;-83
2024/04/09 09:47:39;;;;;;;5.15;2.22;;;;;;;14.93;54.56;100492.16;5303666;26;20006;-81
2024/04/09 09:50:11;;;;;;;7.38;2.10;;;;;;;14.81;54.21;100499.63;5319791;26;20009;-83
2024/04/09 09:52:40;;;;;;;7.90;2.55;;;;;;;14.91;55.82;100489.63;5308025;26;19994;-83
2024/04/09 09:55:09;;;;;;;7.45;2.20;;;;;;;14.91;54.35;100484.31;5319169;26;20025;-81
2024/04/09 09:57:40;;;;;;;6.28;2.88;;;;;;;15.24;54.26;100486.97;5320294;26;20339;-84
2024/04/09 10:00:12;;;;;;;4.50;1.65;;;;;;;15.44;53.58;100496.28;5329805;26;20020;-84
2024/04/09 10:02:41;;;;;;;5.93;1.92;;;;;;;15.35;53.99;100499.97;5302773;26;20005;-80
2024/04/09 10:05:10;;;;;;;7.00;2.47;;;;;;;15.16;54.27;100495.81;5325820;26;20013;-82
2024/04/09 10:07:36;;;;;;;8.77;2.25;;;;;;;14.97;54.71;100496.97;5334950;26;19996;-81
2024/04/09 10:10:05;;;;;;;5.45;2.50;;;;;;;15.22;53.86;100497.78;5340805;26;20000;-80
2024/04/09 10:12:32;;;;;;;7.40;2.42;;;;;;;14.98;55.74;100506.63;5330136;26;20006;-84
2024/04/09 10:15:05;;;;;;;4.43;2.30;;;;;;;14.97;56.46;100525.47;5332264;26;20013;-80
2024/04/09 10:17:46;;;;;;;7.00;2.08;;;;;;;15.10;56.65;100531.97;5324398;26;20048;-82
2024/04/09 10:20:19;;;;;;;5.40;2.17;;;;;;;14.89;54.10;100535.09;5313251;26;20613;-80
2024/04/09 10:22:45;;;;;;;5.60;1.67;;;;;;;14.77;51.12;100551.56;5330222;26;20020;-85
2024/04/09 10:25:18;;;;;;;3.45;2.38;;;;;;;14.59;51.56;100533.88;5330243;26;20010;-81
2024/04/09 10:27:43;;;;;;;6.03;2.30;;;;;;;14.74;52.33;100541.25;5322492;26;20012;-84
2024/04/09 10:30:29;;;;;;;7.18;2.33;;;;;;;14.72;49.85;100548.56;5325812;26;20056;-82
2024/04/09 10:32:55;;;;;;;4.22;2.10;;;;;;;14.51;49.66;100552.53;5307887;26;20518;-81
2024/04/09 10:35:24;;;;;;;3.28;1.38;;;;;;;14.48;49.50;100568.81;5316109;26;20009;-83
2024/04/09 10:37:52;;;;;;;6.13;2.10;;;;;;;14.18;50.21;100562.16;5324606;26;20001;-84
2024/04/09 10:40:21;;;;;;;6.45;2.35;;;;;;;14.07;51.01;100565.94;5321827;26;20016;-81
2024/04/09 10:42:48;;;;;;;8.23;2.40;;;;;;;14.38;51.94;100568.09;5338267;26;20097;-83
2024/04/09 10:45:16;;;;;;;6.88;2.35;;;;;;;14.42;51.55;100569.44;5319803;26;20061;-83
2024/04/09 10:47:45;;;;;;;6.80;2.30;;;;;;;14.47;51.90;100566.28;5334632;26;20005;-81
2024/04/09 10:50:14;;;;;;;7.13;2.50;;;;;;;14.49;52.17;100573.13;5326656;26;20001;-83
2024/04/09 10:52:41;;;;;;;4.93;2.10;;;;;;;14.62;50.82;100586.81;5321969;26;20384;-84
2024/04/09 10:55:09;;;;;;;5.00;2.60;;;;;;;14.59;49.53;100594.31;5335331;26;20071;-85
2024/04/09 10:57:35;;;;;;;8.13;2.40;;;;;;;14.47;51.29;100592.91;5327538;26;20012;-83
2024/04/09 11:00:15;;;;;;;6.97;2.22;;;;;;;14.57;49.28;100594.47;5335131;26;20105;-84
2024/04/09 11:02:42;;;;;;;4.93;1.77;;;;;;;14.66;49.81;100592.66;5327138;26;20021;-83
2024/04/09 11:05:14;;;;;;;6.43;2.17;;;;;;;14.81;49.30;100611.53;5316985;26;20006;-84
2024/04/09 11:07:41;;;;;;;4.47;2.00;;;;;;;14.84;47.29;100608.53;5289215;27;20009;-83
2024/04/09 11:10:12;;;;;;;7.68;2.28;;;;;;;14.77;46.83;100608.34;5325051;26;19997;-80
2024/04/09 11:12:41;;;;;;;3.83;2.22;;;;;;;14.95;46.35;100607.41;5325010;26;20069;-81
2024/04/09 11:15:10;;;;;;;5.28;2.35;;;;;;;15.11;47.34;100616.25;5315606;26;20072;-82
2024/04/09 11:17:36;;;;;;;5.13;2.10;;;;;;;15.40;46.40;100610.47;5314173;26;20012;-83
2024/04/09 11:20:09;;;;;;;5.10;2.00;;;;;;;15.53;46.82;100617.97;5321549;26;20029;-83
2024/04/09 11:22:42;;;;;;;8.10;2.45;;;;;;;15.44;46.75;100613.63;5314810;26;20042;-83
2024/04/09 11:25:11;;;;;;;6.75;2.42;;;;;;;15.10;46.67;100616.44;5314263;26;20033;-83
2024/04/09 11:27:38;;;;;;;6.25;2.25;;;;;;;15.20;45.80;100608.28;5310087;26;20016;-81
2024/04/09 11:30:11;;;;;;;4.65;1.98;;;;;;;15.06;46.69;100602.59;5316938;26;20065;-83